createdAt,value
2023-02-24T00:00:53.512Z,93704.25
2023-02-24T00:02:01.143Z,93694.22
2023-02-24T00:02:59.966Z,93732.22
2023-02-24T00:03:59.128Z,93732.34
2023-02-24T00:04:55.908Z,93726.63
2023-02-24T00:05:52.526Z,93729.75
2023-02-24T00:06:49.260Z,93722.47
2023-02-24T00:07:45.979Z,93720.53
2023-02-24T00:08:42.561Z,93722.47
2023-02-24T00:09:39.654Z,93728.88
2023-02-24T00:10:37.682Z,93717.94
2023-02-24T00:11:41.120Z,93718.38
2023-02-24T00:12:37.776Z,93720.50
2023-02-24T00:13:35.552Z,93715.53
2023-02-24T00:14:35.043Z,93718.25
2023-02-24T00:15:31.678Z,93712.91
2023-02-24T00:16:28.377Z,93713.66
2023-02-24T00:17:27.866Z,93715.31
2023-02-24T00:18:24.538Z,93717.41
2023-02-24T00:19:25.335Z,93717.47
2023-02-24T00:20:21.901Z,93716.09
2023-02-24T00:21:19.374Z,93703.44
2023-02-24T00:22:16.194Z,93713.94
2023-02-24T00:23:12.825Z,93731.53
2023-02-24T00:24:09.855Z,93709.53
2023-02-24T00:25:07.346Z,93715.00
2023-02-24T00:26:07.054Z,93717.69
2023-02-24T00:27:08.838Z,93713.56
2023-02-24T00:28:05.475Z,93715.03
2023-02-24T00:29:05.391Z,93729.47
2023-02-24T00:30:02.094Z,93716.00
2023-02-24T00:31:04.324Z,93680.34
2023-02-24T00:32:01.616Z,93714.03
2023-02-24T00:33:01.368Z,93714.22
2023-02-24T00:33:59.555Z,93716.53
2023-02-24T00:34:56.277Z,93717.06
2023-02-24T00:35:52.987Z,93674.22
2023-02-24T00:36:49.600Z,93712.78
2023-02-24T00:37:51.332Z,93708.66
2023-02-24T00:38:48.000Z,93713.78
2023-02-24T00:39:44.596Z,93709.41
2023-02-24T00:40:45.344Z,93714.38
2023-02-24T00:41:43.802Z,93708.13
2023-02-24T00:42:42.664Z,93705.50
2023-02-24T00:43:40.015Z,93699.81
2023-02-24T00:44:37.853Z,93703.69
2023-02-24T00:45:37.699Z,93708.19
2023-02-24T00:46:36.957Z,93686.50
2023-02-24T00:47:38.944Z,93702.84
2023-02-24T00:48:37.916Z,93701.50
2023-02-24T00:49:36.169Z,93705.00
2023-02-24T00:50:33.023Z,93694.81
2023-02-24T00:51:29.657Z,93686.59
2023-02-24T00:52:27.902Z,93702.16
2023-02-24T00:53:24.518Z,93702.28
2023-02-24T00:54:21.368Z,93690.56
2023-02-24T00:55:19.259Z,93685.34
2023-02-24T00:56:16.569Z,93652.09
2023-02-24T00:57:14.277Z,93691.84
2023-02-24T00:58:10.878Z,93686.44
2023-02-24T00:59:07.495Z,93685.97
2023-02-24T01:00:10.299Z,93687.66
2023-02-24T01:01:14.356Z,93693.53
2023-02-24T01:02:11.532Z,93689.66
2023-02-24T01:03:08.099Z,93632.56
2023-02-24T01:04:07.959Z,93690.69
2023-02-24T01:05:04.993Z,93687.34
2023-02-24T01:06:06.662Z,93685.97
2023-02-24T01:07:03.777Z,93685.97
2023-02-24T01:08:00.583Z,93687.72
2023-02-24T01:08:58.159Z,93683.44
2023-02-24T01:09:54.763Z,93683.25
2023-02-24T01:11:16.648Z,93647.31
2023-02-24T01:12:32.177Z,93676.53
2023-02-24T01:13:28.754Z,93596.47
2023-02-24T01:14:29.531Z,93678.63
2023-02-24T01:15:26.127Z,93646.13
2023-02-24T01:16:22.760Z,93631.28
2023-02-24T01:17:20.745Z,93680.56
2023-02-24T01:18:17.301Z,93677.59
2023-02-24T01:19:13.846Z,93632.91
2023-02-24T01:20:21.066Z,93680.09
2023-02-24T01:21:20.586Z,93677.53
2023-02-24T01:22:19.873Z,93675.47
2023-02-24T01:23:16.427Z,93670.22
2023-02-24T01:24:15.762Z,93666.56
2023-02-24T01:25:12.670Z,93670.00
2023-02-24T01:26:12.323Z,93672.50
2023-02-24T01:27:10.613Z,93652.13
2023-02-24T01:28:11.133Z,93670.63
2023-02-24T01:29:11.322Z,93668.28
2023-02-24T01:30:13.922Z,93651.97
2023-02-24T01:31:10.940Z,93621.16
2023-02-24T01:32:12.931Z,93654.22
2023-02-24T01:33:14.726Z,93672.13
2023-02-24T01:34:13.059Z,93660.47
2023-02-24T01:35:12.104Z,93668.09
2023-02-24T01:36:11.377Z,93657.16
2023-02-24T01:37:08.269Z,93653.38
2023-02-24T01:38:05.311Z,93655.94
2023-02-24T01:39:02.263Z,93618.28
2023-02-24T01:39:58.833Z,93659.91
2023-02-24T01:40:57.977Z,93632.81
2023-02-24T01:41:54.643Z,93653.19
2023-02-24T01:42:51.765Z,93662.22
2023-02-24T01:44:06.054Z,93626.53
2023-02-24T01:45:07.195Z,93659.19
2023-02-24T01:46:03.842Z,93654.44
2023-02-24T01:47:03.991Z,93653.16
2023-02-24T01:48:05.369Z,93647.97
2023-02-24T01:49:11.121Z,93652.19
2023-02-24T01:50:09.972Z,93618.41
2023-02-24T01:51:08.395Z,93643.41
2023-02-24T01:52:22.100Z,93649.56
2023-02-24T01:53:19.916Z,93657.97
2023-02-24T01:54:20.401Z,93650.72
2023-02-24T01:55:25.536Z,93633.19
2023-02-24T01:56:22.141Z,93629.44
2023-02-24T01:57:23.779Z,93633.28
2023-02-24T01:58:25.212Z,93646.63
2023-02-24T01:59:25.739Z,93648.34
2023-02-24T02:00:37.277Z,93589.56
2023-02-24T02:01:40.640Z,93657.53
2023-02-24T02:02:42.489Z,93655.16
2023-02-24T02:03:41.949Z,93653.53
2023-02-24T02:05:03.751Z,93657.69
2023-02-24T02:06:03.894Z,93642.44
2023-02-24T02:07:01.329Z,93649.69
2023-02-24T02:07:58.240Z,93644.81
2023-02-24T02:08:55.210Z,93641.16
2023-02-24T02:09:55.547Z,93656.00
2023-02-24T02:10:58.902Z,93651.75
2023-02-24T02:11:55.566Z,93654.28
2023-02-24T02:12:52.250Z,93654.28
2023-02-24T02:13:52.498Z,93658.13
2023-02-24T02:14:53.632Z,93659.09
2023-02-24T02:16:11.288Z,93655.91
2023-02-24T02:17:30.335Z,93653.31
2023-02-24T02:19:12.224Z,93655.09
2023-02-24T02:20:29.455Z,93660.44
2023-02-24T02:21:28.926Z,93661.69
2023-02-24T02:23:01.001Z,93654.47
2023-02-24T02:24:13.192Z,93638.50
2023-02-24T02:25:31.563Z,93653.47
2023-02-24T02:26:40.578Z,93650.78
2023-02-24T02:28:08.456Z,93646.50
2023-02-24T02:29:28.327Z,93593.81
2023-02-24T02:31:02.597Z,93652.91
2023-02-24T02:32:17.337Z,93650.44
2023-02-24T02:33:51.504Z,93641.75
2023-02-24T02:35:42.601Z,93637.72
2023-02-24T02:36:48.968Z,93646.69
2023-02-24T02:37:53.149Z,93642.16
2023-02-24T02:38:53.517Z,93644.97
2023-02-24T02:40:23.402Z,93642.25
2023-02-24T02:41:29.209Z,93645.31
2023-02-24T02:42:41.101Z,93556.28
2023-02-24T02:43:49.528Z,93645.38
2023-02-24T02:44:57.176Z,93642.63
2023-02-24T02:46:03.834Z,93646.16
2023-02-24T02:47:14.638Z,93646.78
2023-02-24T02:48:22.139Z,93643.00
2023-02-24T02:49:32.586Z,93634.81
2023-02-24T02:50:43.405Z,93612.41
2023-02-24T02:51:46.291Z,93621.38
2023-02-24T02:52:49.583Z,93648.81
2023-02-24T02:53:51.632Z,93600.72
2023-02-24T02:54:54.805Z,93627.78
2023-02-24T02:56:12.684Z,93651.97
2023-02-24T02:57:14.822Z,93642.44
2023-02-24T02:58:17.769Z,93649.53
2023-02-24T02:59:22.611Z,93643.97
2023-02-24T03:00:23.925Z,93605.06
2023-02-24T03:01:25.041Z,93643.78
2023-02-24T03:02:28.669Z,93596.28
2023-02-24T03:03:28.976Z,93639.78
2023-02-24T03:04:27.839Z,93638.50
2023-02-24T03:05:46.549Z,93636.84
2023-02-24T03:07:04.898Z,93639.59
2023-02-24T03:08:05.597Z,93595.69
2023-02-24T03:09:15.840Z,93639.16
2023-02-24T03:10:20.977Z,93641.53
2023-02-24T03:11:20.506Z,93637.25
2023-02-24T03:12:21.504Z,93633.97
2023-02-24T03:13:23.023Z,93640.00
2023-02-24T03:14:25.881Z,93623.34
2023-02-24T03:15:26.057Z,93636.84
2023-02-24T03:16:26.645Z,93590.94
2023-02-24T03:17:27.014Z,93642.94
2023-02-24T03:18:32.045Z,93639.22
2023-02-24T03:19:37.321Z,93643.16
2023-02-24T03:20:40.642Z,93638.88
2023-02-24T03:21:40.973Z,93611.63
2023-02-24T03:22:54.592Z,93641.59
2023-02-24T03:23:52.557Z,93633.94
2023-02-24T03:24:49.567Z,93643.31
2023-02-24T03:25:53.806Z,93567.94
2023-02-24T03:27:03.188Z,93639.91
2023-02-24T03:28:06.666Z,93647.66
2023-02-24T03:29:19.494Z,93645.78
2023-02-24T03:30:22.456Z,93605.00
2023-02-24T03:31:27.905Z,93659.16
2023-02-24T03:32:33.725Z,93660.91
2023-02-24T03:33:44.746Z,93661.38
2023-02-24T03:34:50.570Z,93654.22
2023-02-24T03:35:51.206Z,93654.69
2023-02-24T03:36:48.257Z,93656.91
2023-02-24T03:37:47.185Z,93647.63
2023-02-24T03:38:43.913Z,93660.50
2023-02-24T03:39:40.586Z,93668.00
2023-02-24T03:40:43.429Z,93640.38
2023-02-24T03:41:49.913Z,93642.91
2023-02-24T03:42:50.839Z,93650.97
2023-02-24T03:43:50.185Z,93645.50
2023-02-24T03:44:47.198Z,93637.91
2023-02-24T03:45:44.358Z,93644.59
2023-02-24T03:46:42.698Z,93644.16
2023-02-24T03:47:41.023Z,93643.00
2023-02-24T03:48:45.188Z,93645.81
2023-02-24T03:49:43.799Z,93611.06
2023-02-24T03:50:42.603Z,93636.38
2023-02-24T03:51:44.786Z,93633.72
2023-02-24T03:52:51.298Z,93638.00
2023-02-24T03:54:16.017Z,93643.75
2023-02-24T03:55:30.431Z,93633.19
2023-02-24T03:56:50.516Z,93584.50
2023-02-24T03:58:08.696Z,93638.28
2023-02-24T03:59:15.171Z,93620.78
2023-02-24T04:00:35.265Z,93601.09
2023-02-24T04:01:58.059Z,93631.53
2023-02-24T04:03:05.407Z,93597.50
2023-02-24T04:04:12.494Z,93627.38
2023-02-24T04:05:14.991Z,93617.88
2023-02-24T04:06:27.084Z,93630.28
2023-02-24T04:07:32.976Z,93639.03
2023-02-24T04:08:37.778Z,93562.09
2023-02-24T04:09:50.306Z,93645.22
2023-02-24T04:10:54.963Z,93635.78
2023-02-24T04:11:59.231Z,93640.63
2023-02-24T04:13:10.340Z,93627.75
2023-02-24T04:14:12.734Z,93632.81
2023-02-24T04:15:18.301Z,93628.56
2023-02-24T04:16:30.106Z,93633.09
2023-02-24T04:17:33.373Z,93628.72
2023-02-24T04:18:32.427Z,93629.72
2023-02-24T04:19:38.519Z,93603.31
2023-02-24T04:20:37.055Z,93620.88
2023-02-24T04:21:35.487Z,93627.25
2023-02-24T04:22:33.104Z,93615.72
2023-02-24T04:23:38.776Z,93590.34
2023-02-24T04:24:36.421Z,93604.91
2023-02-24T04:25:33.614Z,93624.75
2023-02-24T04:26:30.349Z,93625.03
2023-02-24T04:27:28.609Z,93612.41
2023-02-24T04:28:27.539Z,93574.16
2023-02-24T04:29:25.920Z,93619.47
2023-02-24T04:30:26.633Z,93624.50
2023-02-24T04:31:26.879Z,93621.56
2023-02-24T04:32:28.109Z,93584.19
2023-02-24T04:33:25.726Z,93623.34
2023-02-24T04:34:22.380Z,93626.44
2023-02-24T04:35:20.985Z,93617.13
2023-02-24T04:36:18.554Z,93621.44
2023-02-24T04:37:15.208Z,93628.56
2023-02-24T04:38:12.447Z,93630.75
2023-02-24T04:39:09.004Z,93623.03
2023-02-24T04:40:10.914Z,93614.34
2023-02-24T04:41:07.509Z,93624.25
2023-02-24T04:42:05.424Z,93620.84
2023-02-24T04:43:03.110Z,93615.34
2023-02-24T04:44:01.724Z,93621.47
2023-02-24T04:44:58.684Z,93626.59
2023-02-24T04:45:56.232Z,93604.63
2023-02-24T04:46:52.927Z,93611.56
2023-02-24T04:47:51.333Z,93613.38
2023-02-24T04:48:47.933Z,93608.06
2023-02-24T04:49:44.730Z,93595.63
2023-02-24T04:50:43.590Z,93610.38
2023-02-24T04:51:43.127Z,93608.38
2023-02-24T04:52:41.001Z,93608.81
2023-02-24T04:53:40.485Z,93601.97
2023-02-24T04:54:37.890Z,93609.47
2023-02-24T04:55:40.180Z,93567.72
2023-02-24T04:56:37.335Z,93600.47
2023-02-24T04:57:37.682Z,93600.81
2023-02-24T04:58:39.954Z,93605.81
2023-02-24T04:59:38.371Z,93604.59
2023-02-24T05:00:35.838Z,93605.59
2023-02-24T05:01:32.730Z,93530.09
2023-02-24T05:02:30.549Z,93600.75
2023-02-24T05:03:28.828Z,93602.72
2023-02-24T05:04:26.524Z,93597.72
2023-02-24T05:05:28.155Z,93604.56
2023-02-24T05:06:24.728Z,93602.66
2023-02-24T05:07:22.562Z,93599.91
2023-02-24T05:08:20.002Z,93598.16
2023-02-24T05:09:18.272Z,93600.81
2023-02-24T05:10:15.510Z,93609.53
2023-02-24T05:11:16.246Z,93613.91
2023-02-24T05:12:12.838Z,93607.78
2023-02-24T05:13:16.691Z,93606.19
2023-02-24T05:14:14.903Z,93579.19
2023-02-24T05:15:14.767Z,93564.06
2023-02-24T05:16:14.494Z,93610.28
2023-02-24T05:17:13.886Z,93603.34
2023-02-24T05:18:17.325Z,93601.00
2023-02-24T05:19:35.036Z,93598.72
2023-02-24T05:20:50.383Z,93606.34
2023-02-24T05:21:47.004Z,93611.94
2023-02-24T05:22:43.610Z,93606.75
2023-02-24T05:23:46.378Z,93595.00
2023-02-24T05:24:43.618Z,93571.50
2023-02-24T05:25:43.005Z,93591.38
2023-02-24T05:26:41.883Z,93612.41
2023-02-24T05:27:39.243Z,93616.88
2023-02-24T05:28:40.796Z,93614.16
2023-02-24T05:29:38.234Z,93608.69
2023-02-24T05:30:35.824Z,93622.94
2023-02-24T05:31:32.901Z,93608.25
2023-02-24T05:32:29.659Z,93610.34
2023-02-24T05:33:29.370Z,93613.31
2023-02-24T05:34:31.419Z,93595.81
2023-02-24T05:35:28.022Z,93588.59
2023-02-24T05:36:27.072Z,93625.50
2023-02-24T05:37:23.678Z,93618.53
2023-02-24T05:38:20.483Z,93611.06
2023-02-24T05:39:19.806Z,93618.31
2023-02-24T05:40:20.102Z,93624.81
2023-02-24T05:41:18.516Z,93589.38
2023-02-24T05:42:15.496Z,93621.44
2023-02-24T05:43:18.050Z,93625.69
2023-02-24T05:44:16.149Z,93619.47
2023-02-24T05:45:12.870Z,93607.78
2023-02-24T05:46:09.492Z,93618.31
2023-02-24T05:47:06.194Z,93621.44
2023-02-24T05:48:05.850Z,93609.28
2023-02-24T05:49:11.127Z,93616.75
2023-02-24T05:50:09.320Z,93619.34
2023-02-24T05:51:11.958Z,93613.97
2023-02-24T05:52:10.208Z,93620.78
2023-02-24T05:53:09.521Z,93620.69
2023-02-24T05:54:08.536Z,93613.44
2023-02-24T05:55:07.301Z,93614.66
2023-02-24T05:56:06.981Z,93546.91
2023-02-24T05:57:12.594Z,93619.94
2023-02-24T05:58:09.173Z,93620.09
2023-02-24T05:59:11.370Z,93625.72
2023-02-24T06:00:14.402Z,93624.69
2023-02-24T06:01:16.406Z,93605.38
2023-02-24T06:02:15.881Z,93624.28
2023-02-24T06:03:17.506Z,93626.91
2023-02-24T06:04:21.083Z,93629.63
2023-02-24T06:05:25.738Z,93616.94
2023-02-24T06:06:23.646Z,93622.94
2023-02-24T06:07:25.818Z,93637.53
2023-02-24T06:08:24.394Z,93639.28
2023-02-24T06:09:23.390Z,93632.06
2023-02-24T06:10:22.505Z,93609.00
2023-02-24T06:11:21.001Z,93636.84
2023-02-24T06:12:18.605Z,93648.25
2023-02-24T06:13:15.784Z,93639.38
2023-02-24T06:14:13.073Z,93646.53
2023-02-24T06:15:10.072Z,93642.50
2023-02-24T06:16:07.213Z,93649.13
2023-02-24T06:17:05.036Z,93651.88
2023-02-24T06:18:02.315Z,93650.44
2023-02-24T06:18:58.937Z,93654.53
2023-02-24T06:19:56.083Z,93646.88
2023-02-24T06:20:53.348Z,93630.25
2023-02-24T06:21:52.676Z,93643.59
2023-02-24T06:22:54.265Z,93641.47
2023-02-24T06:23:50.866Z,93639.13
2023-02-24T06:24:49.505Z,93640.75
2023-02-24T06:25:46.131Z,93643.97
2023-02-24T06:26:43.533Z,93645.38
2023-02-24T06:27:40.154Z,93585.41
2023-02-24T06:28:37.227Z,93649.34
2023-02-24T06:29:33.802Z,93643.94
2023-02-24T06:30:30.438Z,93645.22
2023-02-24T06:31:30.177Z,93640.78
2023-02-24T06:32:26.915Z,93617.34
2023-02-24T06:33:26.760Z,93635.44
2023-02-24T06:34:25.149Z,93649.34
2023-02-24T06:35:21.802Z,93647.91
2023-02-24T06:36:18.432Z,93647.84
2023-02-24T06:37:15.988Z,93527.88
2023-02-24T06:38:12.642Z,93638.28
2023-02-24T06:39:09.247Z,93603.03
2023-02-24T06:40:15.810Z,93646.50
2023-02-24T06:41:13.047Z,93623.25
2023-02-24T06:42:10.991Z,93637.13
2023-02-24T06:43:09.461Z,93632.78
2023-02-24T06:44:06.162Z,93637.00
2023-02-24T06:45:02.849Z,93611.38
2023-02-24T06:46:02.081Z,93586.81
2023-02-24T06:46:58.729Z,93577.31
2023-02-24T06:47:55.839Z,93630.44
2023-02-24T06:48:52.515Z,93633.28
2023-02-24T06:49:49.076Z,93629.91
2023-02-24T06:50:45.698Z,93630.06
2023-02-24T06:51:43.551Z,93627.78
2023-02-24T06:52:40.838Z,93624.78
2023-02-24T06:53:43.269Z,93605.06
2023-02-24T06:54:42.015Z,93626.09
2023-02-24T06:55:38.614Z,93628.56
2023-02-24T06:56:38.824Z,93616.50
2023-02-24T06:57:35.390Z,93625.00
2023-02-24T06:58:32.012Z,93618.88
2023-02-24T06:59:28.738Z,93623.28
2023-02-24T07:00:39.771Z,93621.47
2023-02-24T07:01:45.036Z,93617.81
2023-02-24T07:02:41.643Z,93618.06
2023-02-24T07:03:40.868Z,93622.31
2023-02-24T07:04:44.037Z,93617.16
2023-02-24T07:05:54.364Z,93589.16
2023-02-24T07:06:55.346Z,93566.56
2023-02-24T07:07:52.324Z,93584.56
2023-02-24T07:08:49.077Z,93615.72
2023-02-24T07:09:45.843Z,93612.34
2023-02-24T07:10:42.419Z,93617.38
2023-02-24T07:11:46.870Z,93625.81
2023-02-24T07:12:43.570Z,93617.72
2023-02-24T07:13:41.062Z,93604.88
2023-02-24T07:14:43.828Z,93619.13
2023-02-24T07:15:40.461Z,93605.69
2023-02-24T07:16:41.609Z,93617.53
2023-02-24T07:17:38.273Z,93615.38
2023-02-24T07:18:41.582Z,93601.66
2023-02-24T07:19:40.611Z,93617.47
2023-02-24T07:20:43.642Z,93616.31
2023-02-24T07:21:46.361Z,93606.97
2023-02-24T07:22:43.903Z,93597.78
2023-02-24T07:23:41.799Z,93582.41
2023-02-24T07:24:46.271Z,93605.69
2023-02-24T07:25:46.353Z,93602.22
2023-02-24T07:26:43.834Z,93604.00
2023-02-24T07:27:40.529Z,93564.16
2023-02-24T07:28:40.020Z,93580.09
2023-02-24T07:29:38.027Z,93611.94
2023-02-24T07:30:34.830Z,93599.28
2023-02-24T07:31:35.759Z,93609.50
2023-02-24T07:32:32.712Z,93593.78
2023-02-24T07:33:29.279Z,93604.06
2023-02-24T07:34:25.927Z,93599.59
2023-02-24T07:35:23.988Z,93613.66
2023-02-24T07:36:23.490Z,93598.31
2023-02-24T07:37:20.743Z,93591.28
2023-02-24T07:38:23.054Z,93603.78
2023-02-24T07:39:21.493Z,93602.03
2023-02-24T07:40:21.986Z,93604.28
2023-02-24T07:41:22.690Z,93602.31
2023-02-24T07:42:19.699Z,93608.41
2023-02-24T07:43:16.969Z,93578.16
2023-02-24T07:44:13.857Z,93604.41
2023-02-24T07:45:11.248Z,93614.13
2023-02-24T07:46:14.223Z,93606.13
2023-02-24T07:47:10.909Z,93603.59
2023-02-24T07:48:07.908Z,93598.69
2023-02-24T07:49:04.851Z,93576.56
2023-02-24T07:50:03.011Z,93534.00
2023-02-24T07:50:59.704Z,93596.75
2023-02-24T07:51:58.101Z,93600.03
2023-02-24T07:52:54.829Z,93600.19
2023-02-24T07:53:53.774Z,93588.88
2023-02-24T07:54:50.425Z,93600.06
2023-02-24T07:55:47.524Z,93596.91
2023-02-24T07:56:48.829Z,93592.34
2023-02-24T07:57:48.521Z,93596.13
2023-02-24T07:58:47.018Z,93600.63
2023-02-24T07:59:47.643Z,93597.13
2023-02-24T08:00:59.458Z,93585.75
2023-02-24T08:01:56.984Z,93552.00
2023-02-24T08:02:56.190Z,93593.84
2023-02-24T08:03:56.152Z,93594.56
2023-02-24T08:04:52.839Z,93598.00
2023-02-24T08:05:49.473Z,93600.75
2023-02-24T08:06:48.089Z,93559.72
2023-02-24T08:07:52.059Z,93591.75
2023-02-24T08:09:10.863Z,93589.84
2023-02-24T08:10:24.289Z,93558.84
2023-02-24T08:11:25.043Z,93592.03
2023-02-24T08:12:22.826Z,93590.75
2023-02-24T08:13:19.413Z,93571.84
2023-02-24T08:14:16.076Z,93582.69
2023-02-24T08:15:24.348Z,93585.41
2023-02-24T08:16:21.178Z,93583.31
2023-02-24T08:17:26.754Z,93580.34
2023-02-24T08:18:23.498Z,93584.34
2023-02-24T08:19:21.310Z,93579.16
2023-02-24T08:20:22.028Z,93557.94
2023-02-24T08:21:22.113Z,93555.47
2023-02-24T08:22:24.291Z,93583.53
2023-02-24T08:23:23.534Z,93582.59
2023-02-24T08:24:25.313Z,93588.03
2023-02-24T08:25:35.816Z,93586.47
2023-02-24T08:26:32.936Z,93532.75
2023-02-24T08:27:32.434Z,93550.28
2023-02-24T08:28:29.135Z,93586.28
2023-02-24T08:29:25.739Z,93581.88
2023-02-24T08:30:25.106Z,93578.75
2023-02-24T08:31:22.187Z,93588.25
2023-02-24T08:32:20.767Z,93570.81
2023-02-24T08:33:22.385Z,93571.63
2023-02-24T08:34:18.991Z,93581.47
2023-02-24T08:35:18.171Z,93574.84
2023-02-24T08:36:21.285Z,93575.50
2023-02-24T08:37:17.897Z,93580.06
2023-02-24T08:38:19.936Z,93579.81
2023-02-24T08:39:16.961Z,93577.44
2023-02-24T08:40:33.098Z,93576.88
2023-02-24T08:41:44.959Z,93575.78
2023-02-24T08:42:41.653Z,93572.72
2023-02-24T08:43:40.640Z,93564.38
2023-02-24T08:44:37.326Z,93571.81
2023-02-24T08:45:33.968Z,93568.81
2023-02-24T08:46:37.939Z,93575.88
2023-02-24T08:47:36.155Z,93581.88
2023-02-24T08:48:41.835Z,93558.81
2023-02-24T08:49:39.510Z,93580.19
2023-02-24T08:50:39.686Z,93579.78
2023-02-24T08:51:44.014Z,93566.22
2023-02-24T08:52:40.699Z,93571.13
2023-02-24T08:53:40.614Z,93556.84
2023-02-24T08:54:48.069Z,93574.00
2023-02-24T08:55:51.902Z,93564.72
2023-02-24T08:56:56.230Z,93568.09
2023-02-24T08:57:56.297Z,93537.88
2023-02-24T08:59:05.347Z,93574.25
2023-02-24T09:00:07.092Z,93533.66
2023-02-24T09:01:03.945Z,93576.41
2023-02-24T09:08:01.002Z,93535.72
2023-02-24T09:09:16.374Z,93580.06
2023-02-24T09:10:17.876Z,93573.91
2023-02-24T09:11:15.921Z,93575.66
2023-02-24T09:15:44.737Z,93575.06
2023-02-24T09:16:52.451Z,93568.78
2023-02-24T09:17:50.130Z,93571.13
2023-02-24T09:19:07.458Z,93569.56
2023-02-24T09:20:36.047Z,93576.78
2023-02-24T09:22:10.352Z,93565.03
2023-02-24T09:23:20.022Z,93570.09
2023-02-24T09:24:27.178Z,93570.97
2023-02-24T09:25:25.992Z,93571.66
2023-02-24T09:26:22.698Z,93571.59
2023-02-24T09:27:19.266Z,93562.81
2023-02-24T09:28:27.481Z,93569.69
2023-02-24T09:29:49.305Z,93569.66
2023-02-24T09:31:05.005Z,93573.31
2023-02-24T09:32:04.862Z,93561.81
2023-02-24T09:33:18.057Z,93577.03
2023-02-24T09:34:18.722Z,93559.19
2023-02-24T09:35:26.039Z,93566.53
2023-02-24T09:36:30.169Z,93564.59
2023-02-24T09:37:26.902Z,93520.56
2023-02-24T09:38:43.527Z,93546.97
2023-02-24T09:39:58.168Z,93556.88
2023-02-24T09:40:54.730Z,93568.53
2023-02-24T09:42:07.918Z,93560.78
2023-02-24T09:43:11.142Z,93567.75
2023-02-24T09:44:18.836Z,93564.00
2023-02-24T09:45:33.266Z,93570.41
2023-02-24T09:46:54.071Z,93564.94
2023-02-24T09:47:57.119Z,93567.66
2023-02-24T09:49:06.128Z,93558.97
2023-02-24T09:50:44.269Z,93558.63
2023-02-24T09:51:42.404Z,93559.47
2023-02-24T09:52:42.533Z,93557.66
2023-02-24T09:53:49.451Z,93536.41
2023-02-24T09:55:09.175Z,93550.69
2023-02-24T09:56:17.462Z,93555.03
2023-02-24T09:57:20.602Z,93553.28
2023-02-24T09:58:53.713Z,93554.94
2023-02-24T10:00:23.594Z,93546.88
2023-02-24T10:01:42.858Z,93544.84
2023-02-24T10:03:00.256Z,93478.53
2023-02-24T10:04:18.487Z,93545.09
2023-02-24T10:05:21.283Z,93536.91
2023-02-24T10:06:26.930Z,93530.63
2023-02-24T10:07:38.690Z,93512.31
2023-02-24T10:08:41.104Z,93529.06
2023-02-24T10:10:18.636Z,93528.16
2023-02-24T10:11:16.258Z,93513.16
2023-02-24T10:12:18.916Z,93520.22
2023-02-24T10:13:30.413Z,93523.19
2023-02-24T10:14:43.697Z,93521.75
2023-02-24T10:15:57.844Z,93505.97
2023-02-24T10:17:15.889Z,93517.69
2023-02-24T10:19:01.265Z,93520.28
2023-02-24T10:20:13.885Z,93520.69
2023-02-24T10:21:16.440Z,93512.75
2023-02-24T10:22:27.647Z,93521.34
2023-02-24T10:23:56.542Z,93506.19
2023-02-24T10:25:24.378Z,93509.81
2023-02-24T10:26:33.478Z,93509.97
2023-02-24T10:27:41.566Z,93507.59
2023-02-24T10:28:57.508Z,93498.50
2023-02-24T10:30:19.879Z,93499.88
2023-02-24T10:31:46.020Z,93495.69
2023-02-24T10:32:59.311Z,93488.16
2023-02-24T10:34:06.174Z,93489.72
2023-02-24T10:35:02.989Z,93487.41
2023-02-24T10:36:11.012Z,93488.69
2023-02-24T10:37:27.698Z,93483.47
2023-02-24T10:38:28.621Z,93483.84
2023-02-24T10:39:26.100Z,93487.78
2023-02-24T10:40:33.796Z,93485.16
2023-02-24T10:41:30.568Z,93453.38
2023-02-24T10:42:34.416Z,93481.19
2023-02-24T10:43:31.733Z,93477.50
2023-02-24T10:44:36.394Z,93464.66
2023-02-24T10:45:45.506Z,93471.00
2023-02-24T10:46:43.385Z,93467.63
2023-02-24T10:47:44.482Z,93463.59
2023-02-24T10:48:42.503Z,93395.84
2023-02-24T10:49:57.079Z,93464.13
2023-02-24T10:51:08.411Z,93417.13
2023-02-24T10:52:09.217Z,93461.69
2023-02-24T10:53:34.799Z,93464.59
2023-02-24T10:54:44.767Z,93458.16
2023-02-24T10:55:48.097Z,93454.09
2023-02-24T10:56:55.295Z,93453.63
2023-02-24T10:57:59.289Z,93418.22
2023-02-24T10:59:41.020Z,93383.75
2023-02-24T11:00:56.363Z,93437.47
2023-02-24T11:02:24.681Z,93409.00
2023-02-24T11:03:40.713Z,93437.28
2023-02-24T11:04:51.321Z,93441.59
2023-02-24T11:06:08.230Z,93405.41
2023-02-24T11:07:12.062Z,93429.44
2023-02-24T11:08:37.050Z,93421.75
2023-02-24T11:09:35.374Z,93434.28
2023-02-24T11:10:42.903Z,93424.75
2023-02-24T11:11:57.962Z,93330.69
2023-02-24T11:13:15.272Z,93421.63
2023-02-24T11:14:35.917Z,93420.50
2023-02-24T11:15:54.517Z,93416.78
2023-02-24T11:17:13.053Z,93412.34
2023-02-24T11:18:21.023Z,93378.81
2023-02-24T11:19:17.663Z,93406.28
2023-02-24T11:20:33.621Z,93413.78
2023-02-24T11:21:39.078Z,93406.16
2023-02-24T11:22:41.199Z,93402.00
2023-02-24T11:23:45.335Z,93398.78
2023-02-24T11:24:45.877Z,93409.78
2023-02-24T11:25:47.230Z,93373.31
2023-02-24T11:26:45.314Z,93396.66
2023-02-24T11:27:43.482Z,93397.47
2023-02-24T11:29:04.291Z,93397.44
2023-02-24T11:30:18.797Z,93389.75
2023-02-24T11:31:30.658Z,93393.94
2023-02-24T11:32:47.586Z,93389.28
2023-02-24T11:33:52.026Z,93353.91
2023-02-24T11:35:22.257Z,93390.41
2023-02-24T11:36:27.042Z,93386.94
2023-02-24T11:37:37.770Z,93378.06
2023-02-24T11:38:53.259Z,93388.31
2023-02-24T11:39:54.715Z,93378.03
2023-02-24T11:41:02.966Z,93378.06
2023-02-24T11:42:05.314Z,93375.44
2023-02-24T11:43:18.521Z,93380.34
2023-02-24T11:44:28.341Z,93377.91
2023-02-24T11:45:39.726Z,93362.06
2023-02-24T11:46:42.167Z,93372.31
2023-02-24T11:47:43.345Z,93368.59
2023-02-24T11:48:46.009Z,93364.81
2023-02-24T11:49:50.107Z,93362.38
2023-02-24T11:50:52.027Z,93362.31
2023-02-24T11:51:49.650Z,93358.94
2023-02-24T11:52:51.216Z,93357.56
2023-02-24T11:53:52.421Z,93359.19
2023-02-24T11:54:53.578Z,93353.19
2023-02-24T11:55:59.237Z,93348.13
2023-02-24T11:57:00.673Z,93321.34
2023-02-24T11:57:59.381Z,93354.03
2023-02-24T11:59:07.626Z,93348.25
2023-02-24T12:00:28.817Z,93355.06
2023-02-24T12:01:35.620Z,93353.81
2023-02-24T12:02:54.004Z,93342.75
2023-02-24T12:04:19.332Z,93338.31
2023-02-24T12:05:24.692Z,93341.03
2023-02-24T12:06:30.756Z,93334.09
2023-02-24T12:07:34.996Z,93342.47
2023-02-24T12:08:35.005Z,93339.16
2023-02-24T12:10:00.340Z,93342.38
2023-02-24T12:11:16.391Z,93339.69
2023-02-24T12:12:22.346Z,93337.38
2023-02-24T12:13:56.376Z,93341.66
2023-02-24T12:15:15.835Z,93301.69
2023-02-24T12:16:21.385Z,93340.44
2023-02-24T12:17:44.471Z,93347.94
2023-02-24T12:18:51.180Z,93347.81
2023-02-24T12:19:57.751Z,93345.50
2023-02-24T12:21:17.297Z,93345.78
2023-02-24T12:22:16.689Z,93264.97
2023-02-24T12:23:17.282Z,93333.94
2023-02-24T12:24:17.062Z,93248.53
2023-02-24T12:25:15.141Z,93329.38
2023-02-24T12:26:42.758Z,93328.25
2023-02-24T12:28:24.032Z,93317.66
2023-02-24T12:29:42.700Z,93323.69
2023-02-24T12:31:08.937Z,93308.34
2023-02-24T12:32:46.182Z,93307.94
2023-02-24T12:34:05.407Z,93312.75
2023-02-24T12:35:07.945Z,93323.50
2023-02-24T12:36:24.684Z,93319.53